sensor_id;sensor_type;location;lat;lon;timestamp;temperature;humidity
67769;DHT22;54569;52.018;5.584;2023-12-20T00:01:36;7.20;99.90
67769;DHT22;54569;52.018;5.584;2023-12-20T00:04:02;7.20;99.90
67769;DHT22;54569;52.018;5.584;2023-12-20T00:06:29;7.20;99.90
67769;DHT22;54569;52.018;5.584;2023-12-20T00:08:55;7.10;99.90
67769;DHT22;54569;52.018;5.584;2023-12-20T00:11:21;7.10;99.90
67769;DHT22;54569;52.018;5.584;2023-12-20T00:13:46;7.10;99.90
67769;DHT22;54569;52.018;5.584;2023-12-20T00:16:12;7.00;99.90
67769;DHT22;54569;52.018;5.584;2023-12-20T00:18:38;7.00;99.90
67769;DHT22;54569;52.018;5.584;2023-12-20T00:21:03;7.00;99.90
67769;DHT22;54569;52.018;5.584;2023-12-20T00:23:29;6.90;99.90
67769;DHT22;54569;52.018;5.584;2023-12-20T00:25:55;6.90;99.90
67769;DHT22;54569;52.018;5.584;2023-12-20T00:28:21;6.90;99.90
67769;DHT22;54569;52.018;5.584;2023-12-20T00:30:47;6.80;99.90
67769;DHT22;54569;52.018;5.584;2023-12-20T00:33:13;6.80;99.90
67769;DHT22;54569;52.018;5.584;2023-12-20T00:35:38;6.70;99.90
67769;DHT22;54569;52.018;5.584;2023-12-20T00:38:04;6.70;99.90
67769;DHT22;54569;52.018;5.584;2023-12-20T00:40:34;6.70;99.90
67769;DHT22;54569;52.018;5.584;2023-12-20T00:43:00;6.60;99.90
67769;DHT22;54569;52.018;5.584;2023-12-20T00:45:26;6.60;99.90
67769;DHT22;54569;52.018;5.584;2023-12-20T00:47:51;6.60;99.90
67769;DHT22;54569;52.018;5.584;2023-12-20T00:50:17;6.60;99.90
67769;DHT22;54569;52.018;5.584;2023-12-20T00:52:43;6.50;99.90
67769;DHT22;54569;52.018;5.584;2023-12-20T00:55:09;6.50;99.90
67769;DHT22;54569;52.018;5.584;2023-12-20T00:57:34;6.50;99.90
67769;DHT22;54569;52.018;5.584;2023-12-20T01:00:00;6.50;99.90
67769;DHT22;54569;52.018;5.584;2023-12-20T01:02:26;6.50;99.90
67769;DHT22;54569;52.018;5.584;2023-12-20T01:04:52;6.50;99.90
67769;DHT22;54569;52.018;5.584;2023-12-20T01:07:18;6.50;99.90
67769;DHT22;54569;52.018;5.584;2023-12-20T01:09:44;6.50;99.90
67769;DHT22;54569;52.018;5.584;2023-12-20T01:12:09;6.40;99.90
67769;DHT22;54569;52.018;5.584;2023-12-20T01:14:35;6.40;99.90
67769;DHT22;54569;52.018;5.584;2023-12-20T01:17:02;6.40;99.90
67769;DHT22;54569;52.018;5.584;2023-12-20T01:19:27;6.40;99.90
67769;DHT22;54569;52.018;5.584;2023-12-20T01:21:54;6.40;99.90
67769;DHT22;54569;52.018;5.584;2023-12-20T01:24:21;6.30;99.90
67769;DHT22;54569;52.018;5.584;2023-12-20T01:26:47;6.30;99.90
67769;DHT22;54569;52.018;5.584;2023-12-20T01:29:12;6.30;99.90
67769;DHT22;54569;52.018;5.584;2023-12-20T01:31:40;6.30;99.90
67769;DHT22;54569;52.018;5.584;2023-12-20T01:34:06;6.30;99.90
67769;DHT22;54569;52.018;5.584;2023-12-20T01:36:32;6.30;99.90
67769;DHT22;54569;52.018;5.584;2023-12-20T01:38:57;6.30;99.90
67769;DHT22;54569;52.018;5.584;2023-12-20T01:41:23;6.30;99.90
67769;DHT22;54569;52.018;5.584;2023-12-20T01:43:49;6.30;99.90
67769;DHT22;54569;52.018;5.584;2023-12-20T01:46:15;6.30;99.90
67769;DHT22;54569;52.018;5.584;2023-12-20T01:48:41;6.30;99.90
67769;DHT22;54569;52.018;5.584;2023-12-20T01:51:07;6.30;99.90
67769;DHT22;54569;52.018;5.584;2023-12-20T01:53:34;6.30;99.90
67769;DHT22;54569;52.018;5.584;2023-12-20T01:56:00;6.30;99.90
67769;DHT22;54569;52.018;5.584;2023-12-20T01:58:27;6.30;99.90
67769;DHT22;54569;52.018;5.584;2023-12-20T02:00:53;6.40;99.90
67769;DHT22;54569;52.018;5.584;2023-12-20T02:03:20;6.40;99.90
67769;DHT22;54569;52.018;5.584;2023-12-20T02:05:47;6.50;99.90
67769;DHT22;54569;52.018;5.584;2023-12-20T02:08:13;6.50;99.90
67769;DHT22;54569;52.018;5.584;2023-12-20T02:10:39;6.50;99.90
67769;DHT22;54569;52.018;5.584;2023-12-20T02:13:06;6.60;99.90
67769;DHT22;54569;52.018;5.584;2023-12-20T02:15:32;6.60;99.90
67769;DHT22;54569;52.018;5.584;2023-12-20T02:17:57;6.50;99.90
67769;DHT22;54569;52.018;5.584;2023-12-20T02:20:23;6.50;99.90
67769;DHT22;54569;52.018;5.584;2023-12-20T02:22:49;6.50;99.90
67769;DHT22;54569;52.018;5.584;2023-12-20T02:25:15;6.50;99.90
67769;DHT22;54569;52.018;5.584;2023-12-20T02:27:40;6.60;99.90
67769;DHT22;54569;52.018;5.584;2023-12-20T02:30:07;6.60;99.90
67769;DHT22;54569;52.018;5.584;2023-12-20T02:32:33;6.60;99.90
67769;DHT22;54569;52.018;5.584;2023-12-20T02:34:59;6.60;99.90
67769;DHT22;54569;52.018;5.584;2023-12-20T02:37:25;6.60;99.90
67769;DHT22;54569;52.018;5.584;2023-12-20T02:39:50;6.70;99.90
67769;DHT22;54569;52.018;5.584;2023-12-20T02:42:16;6.70;99.90
67769;DHT22;54569;52.018;5.584;2023-12-20T02:44:42;6.70;99.90
67769;DHT22;54569;52.018;5.584;2023-12-20T02:47:07;6.70;99.90
67769;DHT22;54569;52.018;5.584;2023-12-20T02:49:33;6.70;99.90
67769;DHT22;54569;52.018;5.584;2023-12-20T02:51:59;6.70;99.90
67769;DHT22;54569;52.018;5.584;2023-12-20T02:54:25;6.70;99.90
67769;DHT22;54569;52.018;5.584;2023-12-20T02:56:50;6.70;99.90
67769;DHT22;54569;52.018;5.584;2023-12-20T02:59:16;6.60;99.90
67769;DHT22;54569;52.018;5.584;2023-12-20T03:01:45;6.60;99.90
67769;DHT22;54569;52.018;5.584;2023-12-20T03:04:12;6.60;99.90
67769;DHT22;54569;52.018;5.584;2023-12-20T03:06:38;6.60;99.90
67769;DHT22;54569;52.018;5.584;2023-12-20T03:09:04;6.60;99.90
67769;DHT22;54569;52.018;5.584;2023-12-20T03:11:30;6.60;99.90
67769;DHT22;54569;52.018;5.584;2023-12-20T03:13:56;6.60;99.90
67769;DHT22;54569;52.018;5.584;2023-12-20T03:16:22;6.60;99.90
67769;DHT22;54569;52.018;5.584;2023-12-20T03:18:48;6.60;99.90
67769;DHT22;54569;52.018;5.584;2023-12-20T03:21:14;6.60;99.90
67769;DHT22;54569;52.018;5.584;2023-12-20T03:23:40;6.60;99.90
67769;DHT22;54569;52.018;5.584;2023-12-20T03:26:08;6.60;99.90
67769;DHT22;54569;52.018;5.584;2023-12-20T03:28:34;6.60;99.90
67769;DHT22;54569;52.018;5.584;2023-12-20T03:31:01;6.60;99.90
67769;DHT22;54569;52.018;5.584;2023-12-20T03:33:28;6.60;99.90
67769;DHT22;54569;52.018;5.584;2023-12-20T03:35:54;6.60;99.90
67769;DHT22;54569;52.018;5.584;2023-12-20T03:38:20;6.60;99.90
67769;DHT22;54569;52.018;5.584;2023-12-20T03:40:46;6.60;99.90
67769;DHT22;54569;52.018;5.584;2023-12-20T03:43:12;6.60;99.90
67769;DHT22;54569;52.018;5.584;2023-12-20T03:45:37;6.60;99.90
67769;DHT22;54569;52.018;5.584;2023-12-20T03:48:04;6.70;99.90
67769;DHT22;54569;52.018;5.584;2023-12-20T03:50:29;6.70;99.90
67769;DHT22;54569;52.018;5.584;2023-12-20T03:52:55;6.60;99.90
67769;DHT22;54569;52.018;5.584;2023-12-20T03:55:21;6.70;99.90
67769;DHT22;54569;52.018;5.584;2023-12-20T03:57:47;6.70;99.90
67769;DHT22;54569;52.018;5.584;2023-12-20T04:00:13;6.70;99.90
67769;DHT22;54569;52.018;5.584;2023-12-20T04:02:39;6.70;99.90
67769;DHT22;54569;52.018;5.584;2023-12-20T04:05:06;6.70;99.90
67769;DHT22;54569;52.018;5.584;2023-12-20T04:07:32;6.70;99.90
67769;DHT22;54569;52.018;5.584;2023-12-20T04:09:58;6.70;99.90
67769;DHT22;54569;52.018;5.584;2023-12-20T04:12:24;6.70;99.90
67769;DHT22;54569;52.018;5.584;2023-12-20T04:14:50;6.80;99.90
67769;DHT22;54569;52.018;5.584;2023-12-20T04:17:16;6.80;99.90
67769;DHT22;54569;52.018;5.584;2023-12-20T04:19:42;6.70;99.90
67769;DHT22;54569;52.018;5.584;2023-12-20T04:22:08;6.70;99.90
67769;DHT22;54569;52.018;5.584;2023-12-20T04:24:34;6.70;99.90
67769;DHT22;54569;52.018;5.584;2023-12-20T04:27:01;6.80;99.90
67769;DHT22;54569;52.018;5.584;2023-12-20T04:29:27;6.80;99.90
67769;DHT22;54569;52.018;5.584;2023-12-20T04:31:52;6.80;99.90
67769;DHT22;54569;52.018;5.584;2023-12-20T04:34:18;6.80;99.90
67769;DHT22;54569;52.018;5.584;2023-12-20T04:36:44;6.90;99.90
67769;DHT22;54569;52.018;5.584;2023-12-20T04:39:11;6.90;99.90
67769;DHT22;54569;52.018;5.584;2023-12-20T04:41:37;6.90;99.90
67769;DHT22;54569;52.018;5.584;2023-12-20T04:44:03;6.90;99.90
67769;DHT22;54569;52.018;5.584;2023-12-20T04:46:29;6.90;99.90
67769;DHT22;54569;52.018;5.584;2023-12-20T04:48:54;7.00;99.90
67769;DHT22;54569;52.018;5.584;2023-12-20T04:51:20;7.00;99.90
67769;DHT22;54569;52.018;5.584;2023-12-20T04:53:46;7.00;99.90
67769;DHT22;54569;52.018;5.584;2023-12-20T04:56:12;7.10;99.90
67769;DHT22;54569;52.018;5.584;2023-12-20T04:58:38;7.10;99.90
67769;DHT22;54569;52.018;5.584;2023-12-20T05:01:05;7.10;99.90
67769;DHT22;54569;52.018;5.584;2023-12-20T05:03:31;7.20;99.90
67769;DHT22;54569;52.018;5.584;2023-12-20T05:05:57;7.20;99.90
67769;DHT22;54569;52.018;5.584;2023-12-20T05:08:23;7.20;99.90
67769;DHT22;54569;52.018;5.584;2023-12-20T05:10:56;7.30;99.90
67769;DHT22;54569;52.018;5.584;2023-12-20T05:13:22;7.30;99.90
67769;DHT22;54569;52.018;5.584;2023-12-20T05:15:48;7.30;99.90
67769;DHT22;54569;52.018;5.584;2023-12-20T05:18:13;7.30;99.90
67769;DHT22;54569;52.018;5.584;2023-12-20T05:20:40;7.40;99.90
67769;DHT22;54569;52.018;5.584;2023-12-20T05:23:05;7.40;99.90
67769;DHT22;54569;52.018;5.584;2023-12-20T05:25:31;7.40;99.90
67769;DHT22;54569;52.018;5.584;2023-12-20T05:27:57;7.40;99.90
67769;DHT22;54569;52.018;5.584;2023-12-20T05:30:23;7.40;99.90
67769;DHT22;54569;52.018;5.584;2023-12-20T05:32:49;7.50;99.90
67769;DHT22;54569;52.018;5.584;2023-12-20T05:35:14;7.50;99.90
67769;DHT22;54569;52.018;5.584;2023-12-20T05:37:41;7.50;99.90
67769;DHT22;54569;52.018;5.584;2023-12-20T05:40:07;7.50;99.90
67769;DHT22;54569;52.018;5.584;2023-12-20T05:42:39;7.50;99.90
67769;DHT22;54569;52.018;5.584;2023-12-20T05:45:05;7.50;99.90
67769;DHT22;54569;52.018;5.584;2023-12-20T05:47:31;7.50;99.90
67769;DHT22;54569;52.018;5.584;2023-12-20T05:49:57;7.50;99.90
67769;DHT22;54569;52.018;5.584;2023-12-20T05:52:23;7.50;99.90
67769;DHT22;54569;52.018;5.584;2023-12-20T05:54:48;7.60;99.90
67769;DHT22;54569;52.018;5.584;2023-12-20T05:57:14;7.60;99.90
67769;DHT22;54569;52.018;5.584;2023-12-20T05:59:40;7.60;99.90
67769;DHT22;54569;52.018;5.584;2023-12-20T06:02:06;7.60;99.90
67769;DHT22;54569;52.018;5.584;2023-12-20T06:04:32;7.60;99.90
67769;DHT22;54569;52.018;5.584;2023-12-20T06:06:58;7.60;99.90
67769;DHT22;54569;52.018;5.584;2023-12-20T06:09:26;7.60;99.90
67769;DHT22;54569;52.018;5.584;2023-12-20T06:11:52;7.60;99.90
67769;DHT22;54569;52.018;5.584;2023-12-20T06:14:18;7.60;99.90
67769;DHT22;54569;52.018;5.584;2023-12-20T06:16:44;7.60;99.90
67769;DHT22;54569;52.018;5.584;2023-12-20T06:19:10;7.60;99.90
67769;DHT22;54569;52.018;5.584;2023-12-20T06:21:36;7.60;99.90
67769;DHT22;54569;52.018;5.584;2023-12-20T06:24:02;7.60;99.90
67769;DHT22;54569;52.018;5.584;2023-12-20T06:26:27;7.60;99.90
67769;DHT22;54569;52.018;5.584;2023-12-20T06:28:53;7.60;99.90
67769;DHT22;54569;52.018;5.584;2023-12-20T06:31:19;7.60;99.90
67769;DHT22;54569;52.018;5.584;2023-12-20T06:33:44;7.60;99.90
67769;DHT22;54569;52.018;5.584;2023-12-20T06:36:12;7.60;99.90
67769;DHT22;54569;52.018;5.584;2023-12-20T06:38:38;7.60;99.90
67769;DHT22;54569;52.018;5.584;2023-12-20T06:41:04;7.60;99.90
67769;DHT22;54569;52.018;5.584;2023-12-20T06:43:30;7.60;99.90
67769;DHT22;54569;52.018;5.584;2023-12-20T06:45:56;7.60;99.90
67769;DHT22;54569;52.018;5.584;2023-12-20T06:48:22;7.70;99.90
67769;DHT22;54569;52.018;5.584;2023-12-20T06:50:48;7.60;99.90
67769;DHT22;54569;52.018;5.584;2023-12-20T06:53:13;7.70;99.90
67769;DHT22;54569;52.018;5.584;2023-12-20T06:55:39;7.60;99.90
67769;DHT22;54569;52.018;5.584;2023-12-20T06:58:05;7.70;99.90
67769;DHT22;54569;52.018;5.584;2023-12-20T07:00:32;7.70;99.90
67769;DHT22;54569;52.018;5.584;2023-12-20T07:02:58;7.70;99.90
67769;DHT22;54569;52.018;5.584;2023-12-20T07:05:24;7.70;99.90
67769;DHT22;54569;52.018;5.584;2023-12-20T07:07:50;7.70;99.90
67769;DHT22;54569;52.018;5.584;2023-12-20T07:10:15;7.70;99.90
67769;DHT22;54569;52.018;5.584;2023-12-20T07:12:41;7.70;99.90
67769;DHT22;54569;52.018;5.584;2023-12-20T07:15:07;7.80;99.90
67769;DHT22;54569;52.018;5.584;2023-12-20T07:17:33;7.70;99.90
67769;DHT22;54569;52.018;5.584;2023-12-20T07:19:59;7.70;99.90
67769;DHT22;54569;52.018;5.584;2023-12-20T07:22:30;7.80;99.90
67769;DHT22;54569;52.018;5.584;2023-12-20T07:24:58;7.70;99.90
67769;DHT22;54569;52.018;5.584;2023-12-20T07:27:24;7.80;99.90
67769;DHT22;54569;52.018;5.584;2023-12-20T07:29:49;7.80;99.90
67769;DHT22;54569;52.018;5.584;2023-12-20T07:32:15;7.80;99.90
67769;DHT22;54569;52.018;5.584;2023-12-20T07:34:41;7.80;99.90
67769;DHT22;54569;52.018;5.584;2023-12-20T07:37:06;7.80;99.90
67769;DHT22;54569;52.018;5.584;2023-12-20T07:39:35;7.80;99.90
67769;DHT22;54569;52.018;5.584;2023-12-20T07:42:01;7.80;99.90
67769;DHT22;54569;52.018;5.584;2023-12-20T07:44:27;7.90;99.90
67769;DHT22;54569;52.018;5.584;2023-12-20T07:46:52;7.90;99.90
67769;DHT22;54569;52.018;5.584;2023-12-20T07:49:19;7.90;99.90
67769;DHT22;54569;52.018;5.584;2023-12-20T07:51:45;7.90;99.90
67769;DHT22;54569;52.018;5.584;2023-12-20T07:54:10;7.90;99.90
67769;DHT22;54569;52.018;5.584;2023-12-20T07:56:36;7.90;99.90
67769;DHT22;54569;52.018;5.584;2023-12-20T07:59:02;7.90;99.90
67769;DHT22;54569;52.018;5.584;2023-12-20T08:01:27;7.90;99.90
67769;DHT22;54569;52.018;5.584;2023-12-20T08:03:53;7.90;99.90
67769;DHT22;54569;52.018;5.584;2023-12-20T08:06:19;7.90;99.90
67769;DHT22;54569;52.018;5.584;2023-12-20T08:08:45;7.90;99.90
67769;DHT22;54569;52.018;5.584;2023-12-20T08:11:11;7.90;99.90
67769;DHT22;54569;52.018;5.584;2023-12-20T08:13:36;7.90;99.90
67769;DHT22;54569;52.018;5.584;2023-12-20T08:16:02;7.90;99.90
67769;DHT22;54569;52.018;5.584;2023-12-20T08:18:28;7.90;99.90
67769;DHT22;54569;52.018;5.584;2023-12-20T08:20:54;7.90;99.90
67769;DHT22;54569;52.018;5.584;2023-12-20T08:23:20;7.90;99.90
67769;DHT22;54569;52.018;5.584;2023-12-20T08:25:46;8.00;99.90
67769;DHT22;54569;52.018;5.584;2023-12-20T08:28:13;8.00;99.90
67769;DHT22;54569;52.018;5.584;2023-12-20T08:30:39;8.00;99.90
67769;DHT22;54569;52.018;5.584;2023-12-20T08:33:05;8.00;99.90
67769;DHT22;54569;52.018;5.584;2023-12-20T08:35:33;8.00;99.90
67769;DHT22;54569;52.018;5.584;2023-12-20T08:37:59;8.00;99.90
67769;DHT22;54569;52.018;5.584;2023-12-20T08:40:24;8.00;99.90
67769;DHT22;54569;52.018;5.584;2023-12-20T08:42:50;8.00;99.90
67769;DHT22;54569;52.018;5.584;2023-12-20T08:45:16;8.10;99.90
67769;DHT22;54569;52.018;5.584;2023-12-20T08:47:41;8.10;99.90
67769;DHT22;54569;52.018;5.584;2023-12-20T08:50:10;8.10;99.90
67769;DHT22;54569;52.018;5.584;2023-12-20T08:52:35;8.10;99.90
67769;DHT22;54569;52.018;5.584;2023-12-20T08:55:01;8.10;99.90
67769;DHT22;54569;52.018;5.584;2023-12-20T08:57:27;8.10;99.90
67769;DHT22;54569;52.018;5.584;2023-12-20T08:59:53;8.10;99.90
67769;DHT22;54569;52.018;5.584;2023-12-20T09:02:19;8.10;99.90
67769;DHT22;54569;52.018;5.584;2023-12-20T09:04:45;8.10;99.90
67769;DHT22;54569;52.018;5.584;2023-12-20T09:07:27;8.10;99.90
67769;DHT22;54569;52.018;5.584;2023-12-20T09:09:53;8.10;99.90
67769;DHT22;54569;52.018;5.584;2023-12-20T09:12:19;8.10;99.90
67769;DHT22;54569;52.018;5.584;2023-12-20T09:14:47;8.10;99.90
67769;DHT22;54569;52.018;5.584;2023-12-20T09:17:13;8.10;99.90
67769;DHT22;54569;52.018;5.584;2023-12-20T09:19:39;8.10;99.90
67769;DHT22;54569;52.018;5.584;2023-12-20T09:22:06;8.10;99.90
67769;DHT22;54569;52.018;5.584;2023-12-20T09:24:32;8.10;99.90
67769;DHT22;54569;52.018;5.584;2023-12-20T09:26:58;8.10;99.90
67769;DHT22;54569;52.018;5.584;2023-12-20T09:29:24;8.10;99.90
67769;DHT22;54569;52.018;5.584;2023-12-20T09:31:50;8.10;99.90
67769;DHT22;54569;52.018;5.584;2023-12-20T09:34:16;8.10;99.90
67769;DHT22;54569;52.018;5.584;2023-12-20T09:36:45;8.10;99.90
67769;DHT22;54569;52.018;5.584;2023-12-20T09:39:19;8.10;99.90
67769;DHT22;54569;52.018;5.584;2023-12-20T09:41:51;8.10;99.90
67769;DHT22;54569;52.018;5.584;2023-12-20T09:44:21;8.10;99.90
67769;DHT22;54569;52.018;5.584;2023-12-20T09:46:50;8.10;99.90
67769;DHT22;54569;52.018;5.584;2023-12-20T09:49:17;8.10;99.90
67769;DHT22;54569;52.018;5.584;2023-12-20T09:51:46;8.20;99.90
67769;DHT22;54569;52.018;5.584;2023-12-20T09:54:14;8.20;99.90
67769;DHT22;54569;52.018;5.584;2023-12-20T09:56:41;8.30;99.90
67769;DHT22;54569;52.018;5.584;2023-12-20T09:59:06;8.30;99.90
67769;DHT22;54569;52.018;5.584;2023-12-20T10:01:34;8.30;99.90
67769;DHT22;54569;52.018;5.584;2023-12-20T10:04:01;8.30;99.90
67769;DHT22;54569;52.018;5.584;2023-12-20T10:06:32;8.40;99.90
67769;DHT22;54569;52.018;5.584;2023-12-20T10:08:58;8.40;99.90
67769;DHT22;54569;52.018;5.584;2023-12-20T10:11:25;8.40;99.90
67769;DHT22;54569;52.018;5.584;2023-12-20T10:13:50;8.40;99.90
67769;DHT22;54569;52.018;5.584;2023-12-20T10:16:16;8.50;99.90
67769;DHT22;54569;52.018;5.584;2023-12-20T10:18:42;8.50;99.90
67769;DHT22;54569;52.018;5.584;2023-12-20T10:21:07;8.50;99.90
67769;DHT22;54569;52.018;5.584;2023-12-20T10:23:35;8.60;99.90
67769;DHT22;54569;52.018;5.584;2023-12-20T10:26:02;8.60;99.90
67769;DHT22;54569;52.018;5.584;2023-12-20T10:28:33;8.60;99.90
67769;DHT22;54569;52.018;5.584;2023-12-20T10:30:59;8.70;99.90
67769;DHT22;54569;52.018;5.584;2023-12-20T10:33:26;8.70;99.90
67769;DHT22;54569;52.018;5.584;2023-12-20T10:35:53;8.70;99.90
67769;DHT22;54569;52.018;5.584;2023-12-20T10:38:19;8.80;99.90
67769;DHT22;54569;52.018;5.584;2023-12-20T10:40:46;8.80;99.90
67769;DHT22;54569;52.018;5.584;2023-12-20T10:43:12;8.80;99.90
67769;DHT22;54569;52.018;5.584;2023-12-20T10:45:38;8.80;99.90
67769;DHT22;54569;52.018;5.584;2023-12-20T10:48:04;8.80;99.90
67769;DHT22;54569;52.018;5.584;2023-12-20T10:50:31;8.90;99.90
67769;DHT22;54569;52.018;5.584;2023-12-20T10:52:58;8.90;99.90
67769;DHT22;54569;52.018;5.584;2023-12-20T10:55:24;9.00;99.90
67769;DHT22;54569;52.018;5.584;2023-12-20T10:58:16;9.00;99.90
67769;DHT22;54569;52.018;5.584;2023-12-20T11:00:44;9.10;99.90
67769;DHT22;54569;52.018;5.584;2023-12-20T11:03:11;9.20;99.90
67769;DHT22;54569;52.018;5.584;2023-12-20T11:05:44;9.40;99.90
67769;DHT22;54569;52.018;5.584;2023-12-20T11:13:31;10.10;99.90
67769;DHT22;54569;52.018;5.584;2023-12-20T11:15:59;10.00;99.90
67769;DHT22;54569;52.018;5.584;2023-12-20T11:18:31;9.90;99.90
67769;DHT22;54569;52.018;5.584;2023-12-20T11:21:01;9.80;99.90
67769;DHT22;54569;52.018;5.584;2023-12-20T11:23:32;9.90;99.90
67769;DHT22;54569;52.018;5.584;2023-12-20T11:26:00;9.90;99.90
67769;DHT22;54569;52.018;5.584;2023-12-20T11:28:27;9.90;99.90
67769;DHT22;54569;52.018;5.584;2023-12-20T11:30:54;9.90;99.90
67769;DHT22;54569;52.018;5.584;2023-12-20T11:33:25;9.80;99.90
67769;DHT22;54569;52.018;5.584;2023-12-20T11:35:52;9.80;99.90
67769;DHT22;54569;52.018;5.584;2023-12-20T11:38:20;9.70;99.90
67769;DHT22;54569;52.018;5.584;2023-12-20T11:40:49;9.70;99.90
67769;DHT22;54569;52.018;5.584;2023-12-20T11:43:34;9.70;99.90
67769;DHT22;54569;52.018;5.584;2023-12-20T11:46:07;9.80;99.90
67769;DHT22;54569;52.018;5.584;2023-12-20T11:48:39;9.90;99.90
67769;DHT22;54569;52.018;5.584;2023-12-20T11:51:10;9.90;99.90
67769;DHT22;54569;52.018;5.584;2023-12-20T11:53:36;10.10;99.90
67769;DHT22;54569;52.018;5.584;2023-12-20T11:56:03;10.30;99.90
67769;DHT22;54569;52.018;5.584;2023-12-20T11:58:29;10.30;99.90
67769;DHT22;54569;52.018;5.584;2023-12-20T12:00:56;10.40;99.90
67769;DHT22;54569;52.018;5.584;2023-12-20T12:03:22;10.40;99.90
67769;DHT22;54569;52.018;5.584;2023-12-20T12:05:49;10.50;99.90
67769;DHT22;54569;52.018;5.584;2023-12-20T12:08:16;10.50;99.90
67769;DHT22;54569;52.018;5.584;2023-12-20T12:10:43;10.50;99.90
67769;DHT22;54569;52.018;5.584;2023-12-20T12:13:10;10.50;99.90
67769;DHT22;54569;52.018;5.584;2023-12-20T12:15:36;10.50;99.90
67769;DHT22;54569;52.018;5.584;2023-12-20T12:18:03;10.40;99.90
67769;DHT22;54569;52.018;5.584;2023-12-20T12:20:29;10.40;99.90
67769;DHT22;54569;52.018;5.584;2023-12-20T12:25:25;10.30;99.90
67769;DHT22;54569;52.018;5.584;2023-12-20T12:27:51;10.20;99.90
67769;DHT22;54569;52.018;5.584;2023-12-20T12:30:18;10.10;99.90
67769;DHT22;54569;52.018;5.584;2023-12-20T12:32:47;10.00;99.90
67769;DHT22;54569;52.018;5.584;2023-12-20T12:35:14;10.00;99.90
67769;DHT22;54569;52.018;5.584;2023-12-20T12:37:41;10.00;99.90
67769;DHT22;54569;52.018;5.584;2023-12-20T12:40:14;9.90;99.90
67769;DHT22;54569;52.018;5.584;2023-12-20T12:42:41;9.90;99.90
67769;DHT22;54569;52.018;5.584;2023-12-20T12:45:08;9.80;99.90
67769;DHT22;54569;52.018;5.584;2023-12-20T12:47:34;9.80;99.90
67769;DHT22;54569;52.018;5.584;2023-12-20T12:50:00;9.90;99.90
67769;DHT22;54569;52.018;5.584;2023-12-20T12:52:26;9.90;99.90
67769;DHT22;54569;52.018;5.584;2023-12-20T12:54:52;9.90;99.90
67769;DHT22;54569;52.018;5.584;2023-12-20T12:57:18;10.00;99.90
67769;DHT22;54569;52.018;5.584;2023-12-20T12:59:45;10.00;99.90
67769;DHT22;54569;52.018;5.584;2023-12-20T13:02:14;10.00;99.90
67769;DHT22;54569;52.018;5.584;2023-12-20T13:04:40;10.00;99.90
67769;DHT22;54569;52.018;5.584;2023-12-20T13:07:10;10.00;99.90
67769;DHT22;54569;52.018;5.584;2023-12-20T13:09:37;10.00;99.90
67769;DHT22;54569;52.018;5.584;2023-12-20T13:12:03;10.00;99.90
67769;DHT22;54569;52.018;5.584;2023-12-20T13:14:31;10.00;99.90
67769;DHT22;54569;52.018;5.584;2023-12-20T13:16:58;10.00;99.90
67769;DHT22;54569;52.018;5.584;2023-12-20T13:19:24;10.00;99.90
67769;DHT22;54569;52.018;5.584;2023-12-20T13:21:50;9.90;99.90
67769;DHT22;54569;52.018;5.584;2023-12-20T13:24:15;10.00;99.90
67769;DHT22;54569;52.018;5.584;2023-12-20T13:26:41;9.90;99.90
67769;DHT22;54569;52.018;5.584;2023-12-20T13:29:07;9.90;99.90
67769;DHT22;54569;52.018;5.584;2023-12-20T13:31:33;9.90;99.90
67769;DHT22;54569;52.018;5.584;2023-12-20T13:33:58;9.90;99.90
67769;DHT22;54569;52.018;5.584;2023-12-20T13:36:24;9.80;99.90
67769;DHT22;54569;52.018;5.584;2023-12-20T13:38:50;9.90;99.90
67769;DHT22;54569;52.018;5.584;2023-12-20T13:41:16;9.80;99.90
67769;DHT22;54569;52.018;5.584;2023-12-20T13:43:42;9.80;99.90
67769;DHT22;54569;52.018;5.584;2023-12-20T13:46:08;9.80;99.90
67769;DHT22;54569;52.018;5.584;2023-12-20T13:48:34;9.80;99.90
67769;DHT22;54569;52.018;5.584;2023-12-20T13:51:00;9.80;99.90
67769;DHT22;54569;52.018;5.584;2023-12-20T13:53:28;9.80;99.90
67769;DHT22;54569;52.018;5.584;2023-12-20T13:55:54;9.80;99.90
67769;DHT22;54569;52.018;5.584;2023-12-20T13:58:20;9.80;99.90
67769;DHT22;54569;52.018;5.584;2023-12-20T14:00:45;9.80;99.90
67769;DHT22;54569;52.018;5.584;2023-12-20T14:03:11;9.80;99.90
67769;DHT22;54569;52.018;5.584;2023-12-20T14:05:37;9.80;99.90
67769;DHT22;54569;52.018;5.584;2023-12-20T14:08:03;9.80;99.90
67769;DHT22;54569;52.018;5.584;2023-12-20T14:10:29;9.80;99.90
67769;DHT22;54569;52.018;5.584;2023-12-20T14:12:55;9.90;99.90
67769;DHT22;54569;52.018;5.584;2023-12-20T14:15:21;9.80;99.90
67769;DHT22;54569;52.018;5.584;2023-12-20T14:17:47;9.80;99.90
67769;DHT22;54569;52.018;5.584;2023-12-20T14:20:13;9.80;99.90
67769;DHT22;54569;52.018;5.584;2023-12-20T14:22:39;9.80;99.90
67769;DHT22;54569;52.018;5.584;2023-12-20T14:25:11;9.80;99.90
67769;DHT22;54569;52.018;5.584;2023-12-20T14:27:38;9.80;99.90
67769;DHT22;54569;52.018;5.584;2023-12-20T14:30:05;9.80;99.90
67769;DHT22;54569;52.018;5.584;2023-12-20T14:32:34;9.80;99.90
67769;DHT22;54569;52.018;5.584;2023-12-20T14:34:59;9.80;99.90
67769;DHT22;54569;52.018;5.584;2023-12-20T14:37:25;9.70;99.90
67769;DHT22;54569;52.018;5.584;2023-12-20T14:39:51;9.70;99.90
67769;DHT22;54569;52.018;5.584;2023-12-20T14:42:17;9.70;99.90
67769;DHT22;54569;52.018;5.584;2023-12-20T14:44:43;9.70;99.90
67769;DHT22;54569;52.018;5.584;2023-12-20T14:47:09;9.70;99.90
67769;DHT22;54569;52.018;5.584;2023-12-20T14:49:35;9.70;99.90
67769;DHT22;54569;52.018;5.584;2023-12-20T14:52:01;9.70;99.90
67769;DHT22;54569;52.018;5.584;2023-12-20T14:54:27;9.70;99.90
67769;DHT22;54569;52.018;5.584;2023-12-20T14:56:53;9.70;99.90
67769;DHT22;54569;52.018;5.584;2023-12-20T14:59:18;9.70;99.90
67769;DHT22;54569;52.018;5.584;2023-12-20T15:01:44;9.70;99.90
67769;DHT22;54569;52.018;5.584;2023-12-20T15:04:10;9.60;99.90
67769;DHT22;54569;52.018;5.584;2023-12-20T15:06:36;9.60;99.90
67769;DHT22;54569;52.018;5.584;2023-12-20T15:09:02;9.60;99.90
67769;DHT22;54569;52.018;5.584;2023-12-20T15:11:30;9.50;99.90
67769;DHT22;54569;52.018;5.584;2023-12-20T15:13:57;9.50;99.90
67769;DHT22;54569;52.018;5.584;2023-12-20T15:16:24;9.50;99.90
67769;DHT22;54569;52.018;5.584;2023-12-20T15:18:51;9.50;99.90
67769;DHT22;54569;52.018;5.584;2023-12-20T15:21:17;9.50;99.90
67769;DHT22;54569;52.018;5.584;2023-12-20T15:23:43;9.50;99.90
67769;DHT22;54569;52.018;5.584;2023-12-20T15:26:19;9.40;99.90
67769;DHT22;54569;52.018;5.584;2023-12-20T15:28:45;9.40;99.90
67769;DHT22;54569;52.018;5.584;2023-12-20T15:31:11;9.40;99.90
67769;DHT22;54569;52.018;5.584;2023-12-20T15:33:38;9.40;99.90
67769;DHT22;54569;52.018;5.584;2023-12-20T15:36:04;9.40;99.90
67769;DHT22;54569;52.018;5.584;2023-12-20T15:38:30;9.30;99.90
67769;DHT22;54569;52.018;5.584;2023-12-20T15:40:56;9.30;99.90
67769;DHT22;54569;52.018;5.584;2023-12-20T15:43:22;9.30;99.90
67769;DHT22;54569;52.018;5.584;2023-12-20T15:45:47;9.30;99.90
67769;DHT22;54569;52.018;5.584;2023-12-20T15:48:13;9.30;99.90